sensor_id;sensor_type;location;lat;lon;timestamp;P1;durP1;ratioP1;P2;durP2;ratioP2
10007;SDS011;5043;41.766;26.204;2023-09-19T00:02:14;4.30;;;3.90;;
10007;SDS011;5043;41.766;26.204;2023-09-19T00:04:39;8.35;;;4.20;;
10007;SDS011;5043;41.766;26.204;2023-09-19T00:07:05;5.32;;;4.55;;
10007;SDS011;5043;41.766;26.204;2023-09-19T00:09:30;5.13;;;4.30;;
10007;SDS011;5043;41.766;26.204;2023-09-19T00:12:02;6.75;;;4.50;;
10007;SDS011;5043;41.766;26.204;2023-09-19T00:14:31;5.45;;;4.43;;
10007;SDS011;5043;41.766;26.204;2023-09-19T00:16:59;5.18;;;4.43;;
10007;SDS011;5043;41.766;26.204;2023-09-19T00:19:25;5.47;;;4.57;;
10007;SDS011;5043;41.766;26.204;2023-09-19T00:21:51;5.57;;;4.43;;
10007;SDS011;5043;41.766;26.204;2023-09-19T00:24:18;4.93;;;4.47;;
10007;SDS011;5043;41.766;26.204;2023-09-19T00:26:43;5.82;;;5.22;;
10007;SDS011;5043;41.766;26.204;2023-09-19T00:29:08;5.70;;;5.20;;
10007;SDS011;5043;41.766;26.204;2023-09-19T00:31:34;7.78;;;4.65;;
10007;SDS011;5043;41.766;26.204;2023-09-19T00:34:02;18.60;;;4.80;;
10007;SDS011;5043;41.766;26.204;2023-09-19T00:36:35;6.55;;;5.40;;
10007;SDS011;5043;41.766;26.204;2023-09-19T00:39:01;10.15;;;5.38;;
10007;SDS011;5043;41.766;26.204;2023-09-19T00:41:28;5.72;;;5.13;;
10007;SDS011;5043;41.766;26.204;2023-09-19T00:43:55;6.47;;;4.90;;
10007;SDS011;5043;41.766;26.204;2023-09-19T00:46:20;6.93;;;6.05;;
10007;SDS011;5043;41.766;26.204;2023-09-19T00:48:46;6.13;;;5.45;;
10007;SDS011;5043;41.766;26.204;2023-09-19T00:51:12;7.13;;;5.90;;
10007;SDS011;5043;41.766;26.204;2023-09-19T00:53:39;8.52;;;6.28;;
10007;SDS011;5043;41.766;26.204;2023-09-19T00:56:11;9.50;;;6.00;;
10007;SDS011;5043;41.766;26.204;2023-09-19T00:58:36;8.48;;;5.53;;
10007;SDS011;5043;41.766;26.204;2023-09-19T01:01:05;7.95;;;5.05;;
10007;SDS011;5043;41.766;26.204;2023-09-19T01:03:32;8.32;;;5.25;;
10007;SDS011;5043;41.766;26.204;2023-09-19T01:06:01;6.97;;;5.65;;
10007;SDS011;5043;41.766;26.204;2023-09-19T01:08:27;5.82;;;5.30;;
10007;SDS011;5043;41.766;26.204;2023-09-19T01:11:04;12.70;;;5.97;;
10007;SDS011;5043;41.766;26.204;2023-09-19T01:14:11;8.35;;;4.50;;
10007;SDS011;5043;41.766;26.204;2023-09-19T01:28:02;7.55;;;4.55;;
10007;SDS011;5043;41.766;26.204;2023-09-19T01:30:40;7.80;;;4.43;;
10007;SDS011;5043;41.766;26.204;2023-09-19T01:33:09;4.75;;;4.22;;
10007;SDS011;5043;41.766;26.204;2023-09-19T01:35:39;7.53;;;4.60;;
10007;SDS011;5043;41.766;26.204;2023-09-19T01:38:05;4.70;;;4.28;;
10007;SDS011;5043;41.766;26.204;2023-09-19T01:40:43;5.80;;;4.45;;
10007;SDS011;5043;41.766;26.204;2023-09-19T01:43:30;5.43;;;3.88;;
10007;SDS011;5043;41.766;26.204;2023-09-19T01:46:12;6.10;;;4.43;;
10007;SDS011;5043;41.766;26.204;2023-09-19T01:51:41;5.78;;;4.45;;
10007;SDS011;5043;41.766;26.204;2023-09-19T01:54:32;6.93;;;4.57;;
10007;SDS011;5043;41.766;26.204;2023-09-19T01:57:08;7.45;;;4.55;;
10007;SDS011;5043;41.766;26.204;2023-09-19T02:00:00;6.28;;;4.25;;
10007;SDS011;5043;41.766;26.204;2023-09-19T02:02:33;6.85;;;5.30;;
10007;SDS011;5043;41.766;26.204;2023-09-19T02:05:03;4.75;;;4.20;;
10007;SDS011;5043;41.766;26.204;2023-09-19T02:07:29;8.68;;;4.82;;
10007;SDS011;5043;41.766;26.204;2023-09-19T02:09:57;7.50;;;4.93;;
10007;SDS011;5043;41.766;26.204;2023-09-19T02:12:25;9.32;;;5.32;;
10007;SDS011;5043;41.766;26.204;2023-09-19T02:14:50;7.10;;;5.05;;
10007;SDS011;5043;41.766;26.204;2023-09-19T02:17:16;9.93;;;4.78;;
10007;SDS011;5043;41.766;26.204;2023-09-19T02:19:42;6.30;;;4.60;;
10007;SDS011;5043;41.766;26.204;2023-09-19T02:22:08;6.18;;;5.38;;
10007;SDS011;5043;41.766;26.204;2023-09-19T02:24:36;8.75;;;5.28;;
10007;SDS011;5043;41.766;26.204;2023-09-19T02:27:02;7.63;;;4.88;;
10007;SDS011;5043;41.766;26.204;2023-09-19T02:29:32;5.10;;;4.40;;
10007;SDS011;5043;41.766;26.204;2023-09-19T02:32:00;9.35;;;5.25;;
10007;SDS011;5043;41.766;26.204;2023-09-19T02:34:26;6.28;;;5.68;;
10007;SDS011;5043;41.766;26.204;2023-09-19T02:36:52;5.75;;;5.22;;
10007;SDS011;5043;41.766;26.204;2023-09-19T02:39:19;7.78;;;5.60;;
10007;SDS011;5043;41.766;26.204;2023-09-19T02:41:45;7.97;;;5.70;;
10007;SDS011;5043;41.766;26.204;2023-09-19T02:44:11;7.63;;;5.45;;
10007;SDS011;5043;41.766;26.204;2023-09-19T02:46:37;6.70;;;4.78;;
10007;SDS011;5043;41.766;26.204;2023-09-19T02:49:03;5.45;;;4.95;;
10007;SDS011;5043;41.766;26.204;2023-09-19T02:51:31;7.05;;;5.13;;
10007;SDS011;5043;41.766;26.204;2023-09-19T02:54:01;6.82;;;5.30;;
10007;SDS011;5043;41.766;26.204;2023-09-19T02:56:29;8.55;;;5.25;;
10007;SDS011;5043;41.766;26.204;2023-09-19T02:58:55;9.15;;;5.78;;
10007;SDS011;5043;41.766;26.204;2023-09-19T03:01:21;9.95;;;6.03;;
10007;SDS011;5043;41.766;26.204;2023-09-19T03:03:47;8.20;;;5.25;;
10007;SDS011;5043;41.766;26.204;2023-09-19T03:06:12;6.80;;;5.53;;
10007;SDS011;5043;41.766;26.204;2023-09-19T03:08:38;9.77;;;6.18;;
10007;SDS011;5043;41.766;26.204;2023-09-19T03:11:05;6.65;;;5.22;;
10007;SDS011;5043;41.766;26.204;2023-09-19T03:13:32;5.13;;;4.63;;
10007;SDS011;5043;41.766;26.204;2023-09-19T03:15:58;5.50;;;4.97;;
10007;SDS011;5043;41.766;26.204;2023-09-19T03:18:26;5.30;;;4.75;;
10007;SDS011;5043;41.766;26.204;2023-09-19T03:20:55;7.47;;;5.20;;
10007;SDS011;5043;41.766;26.204;2023-09-19T03:23:21;6.18;;;4.95;;
10007;SDS011;5043;41.766;26.204;2023-09-19T03:25:47;5.88;;;5.00;;
10007;SDS011;5043;41.766;26.204;2023-09-19T03:28:13;6.75;;;5.03;;
10007;SDS011;5043;41.766;26.204;2023-09-19T03:30:40;7.43;;;5.10;;
10007;SDS011;5043;41.766;26.204;2023-09-19T03:33:06;13.02;;;5.20;;
10007;SDS011;5043;41.766;26.204;2023-09-19T03:35:31;5.35;;;4.85;;
10007;SDS011;5043;41.766;26.204;2023-09-19T03:37:57;5.88;;;4.70;;
10007;SDS011;5043;41.766;26.204;2023-09-19T03:40:23;5.25;;;4.60;;
10007;SDS011;5043;41.766;26.204;2023-09-19T03:42:50;8.60;;;5.10;;
10007;SDS011;5043;41.766;26.204;2023-09-19T03:45:16;5.88;;;4.88;;
10007;SDS011;5043;41.766;26.204;2023-09-19T03:47:43;6.35;;;5.18;;
10007;SDS011;5043;41.766;26.204;2023-09-19T03:50:09;6.20;;;5.05;;
10007;SDS011;5043;41.766;26.204;2023-09-19T03:52:36;5.63;;;4.93;;
10007;SDS011;5043;41.766;26.204;2023-09-19T03:55:03;6.13;;;5.28;;
10007;SDS011;5043;41.766;26.204;2023-09-19T03:57:31;5.68;;;5.13;;
10007;SDS011;5043;41.766;26.204;2023-09-19T03:59:57;10.70;;;5.55;;
10007;SDS011;5043;41.766;26.204;2023-09-19T04:02:22;8.35;;;5.45;;
10007;SDS011;5043;41.766;26.204;2023-09-19T04:04:49;6.28;;;5.00;;
10007;SDS011;5043;41.766;26.204;2023-09-19T04:07:15;7.65;;;5.82;;
10007;SDS011;5043;41.766;26.204;2023-09-19T04:09:41;11.30;;;6.07;;
10007;SDS011;5043;41.766;26.204;2023-09-19T04:12:07;13.40;;;6.13;;
10007;SDS011;5043;41.766;26.204;2023-09-19T04:14:34;7.97;;;5.70;;
10007;SDS011;5043;41.766;26.204;2023-09-19T04:16:59;9.05;;;5.70;;
10007;SDS011;5043;41.766;26.204;2023-09-19T04:19:26;9.77;;;6.13;;
10007;SDS011;5043;41.766;26.204;2023-09-19T04:21:51;7.10;;;6.22;;
10007;SDS011;5043;41.766;26.204;2023-09-19T04:24:16;8.32;;;6.15;;
10007;SDS011;5043;41.766;26.204;2023-09-19T04:26:44;8.27;;;5.90;;
10007;SDS011;5043;41.766;26.204;2023-09-19T04:29:10;7.10;;;5.82;;
10007;SDS011;5043;41.766;26.204;2023-09-19T04:31:36;5.78;;;5.18;;
10007;SDS011;5043;41.766;26.204;2023-09-19T04:34:03;6.95;;;6.28;;
10007;SDS011;5043;41.766;26.204;2023-09-19T04:36:28;7.97;;;5.60;;
10007;SDS011;5043;41.766;26.204;2023-09-19T04:38:55;6.35;;;5.80;;
10007;SDS011;5043;41.766;26.204;2023-09-19T04:41:20;7.40;;;5.63;;
10007;SDS011;5043;41.766;26.204;2023-09-19T04:43:47;7.25;;;6.20;;
10007;SDS011;5043;41.766;26.204;2023-09-19T04:46:14;10.20;;;6.43;;
10007;SDS011;5043;41.766;26.204;2023-09-19T04:48:40;10.25;;;5.75;;
10007;SDS011;5043;41.766;26.204;2023-09-19T04:51:06;10.05;;;6.18;;
10007;SDS011;5043;41.766;26.204;2023-09-19T04:53:32;7.05;;;6.32;;
10007;SDS011;5043;41.766;26.204;2023-09-19T04:55:57;7.95;;;5.90;;
10007;SDS011;5043;41.766;26.204;2023-09-19T04:58:23;9.75;;;6.20;;
10007;SDS011;5043;41.766;26.204;2023-09-19T05:00:48;12.77;;;6.45;;
10007;SDS011;5043;41.766;26.204;2023-09-19T05:03:16;14.38;;;6.00;;
10007;SDS011;5043;41.766;26.204;2023-09-19T05:05:42;6.25;;;5.65;;
10007;SDS011;5043;41.766;26.204;2023-09-19T05:08:08;8.13;;;6.28;;
10007;SDS011;5043;41.766;26.204;2023-09-19T05:10:34;7.43;;;5.88;;
10007;SDS011;5043;41.766;26.204;2023-09-19T05:13:03;8.77;;;5.63;;
10007;SDS011;5043;41.766;26.204;2023-09-19T05:15:30;16.63;;;6.53;;
10007;SDS011;5043;41.766;26.204;2023-09-19T05:17:56;8.80;;;6.35;;
10007;SDS011;5043;41.766;26.204;2023-09-19T05:20:21;6.82;;;5.65;;
10007;SDS011;5043;41.766;26.204;2023-09-19T05:22:57;12.73;;;6.38;;
10007;SDS011;5043;41.766;26.204;2023-09-19T05:25:32;8.23;;;7.10;;
10007;SDS011;5043;41.766;26.204;2023-09-19T05:28:03;8.40;;;6.43;;
10007;SDS011;5043;41.766;26.204;2023-09-19T05:30:33;7.05;;;6.28;;
10007;SDS011;5043;41.766;26.204;2023-09-19T05:33:04;9.05;;;6.38;;
10007;SDS011;5043;41.766;26.204;2023-09-19T05:35:30;7.65;;;6.90;;
10007;SDS011;5043;41.766;26.204;2023-09-19T05:37:56;7.40;;;6.30;;
10007;SDS011;5043;41.766;26.204;2023-09-19T05:40:23;6.70;;;6.05;;
10007;SDS011;5043;41.766;26.204;2023-09-19T05:42:49;11.77;;;6.80;;
10007;SDS011;5043;41.766;26.204;2023-09-19T05:45:15;6.93;;;6.30;;
10007;SDS011;5043;41.766;26.204;2023-09-19T05:47:47;6.97;;;6.28;;
10007;SDS011;5043;41.766;26.204;2023-09-19T05:50:16;10.10;;;6.28;;
10007;SDS011;5043;41.766;26.204;2023-09-19T05:52:43;11.30;;;6.45;;
10007;SDS011;5043;41.766;26.204;2023-09-19T05:55:17;7.22;;;6.20;;
10007;SDS011;5043;41.766;26.204;2023-09-19T05:57:42;9.45;;;6.10;;
10007;SDS011;5043;41.766;26.204;2023-09-19T06:00:08;12.02;;;5.50;;
10007;SDS011;5043;41.766;26.204;2023-09-19T06:02:36;10.23;;;6.50;;
10007;SDS011;5043;41.766;26.204;2023-09-19T06:05:03;9.00;;;7.13;;
10007;SDS011;5043;41.766;26.204;2023-09-19T06:07:31;8.88;;;7.97;;
10007;SDS011;5043;41.766;26.204;2023-09-19T06:10:03;8.20;;;7.35;;
10007;SDS011;5043;41.766;26.204;2023-09-19T06:12:33;10.20;;;7.82;;
10007;SDS011;5043;41.766;26.204;2023-09-19T06:15:03;8.15;;;7.35;;
10007;SDS011;5043;41.766;26.204;2023-09-19T06:17:30;8.68;;;7.35;;
10007;SDS011;5043;41.766;26.204;2023-09-19T06:19:56;8.02;;;7.20;;
10007;SDS011;5043;41.766;26.204;2023-09-19T06:22:21;7.10;;;6.40;;
10007;SDS011;5043;41.766;26.204;2023-09-19T06:24:47;7.25;;;6.53;;
10007;SDS011;5043;41.766;26.204;2023-09-19T06:27:13;9.45;;;6.80;;
10007;SDS011;5043;41.766;26.204;2023-09-19T06:29:38;6.88;;;5.47;;
10007;SDS011;5043;41.766;26.204;2023-09-19T06:32:07;6.93;;;6.15;;
10007;SDS011;5043;41.766;26.204;2023-09-19T06:34:34;8.60;;;6.05;;
10007;SDS011;5043;41.766;26.204;2023-09-19T06:36:59;14.88;;;5.22;;
10007;SDS011;5043;41.766;26.204;2023-09-19T06:39:26;5.22;;;4.72;;
10007;SDS011;5043;41.766;26.204;2023-09-19T06:41:52;7.35;;;4.97;;
10007;SDS011;5043;41.766;26.204;2023-09-19T06:44:20;7.35;;;4.68;;
10007;SDS011;5043;41.766;26.204;2023-09-19T06:46:49;6.18;;;4.00;;
10007;SDS011;5043;41.766;26.204;2023-09-19T06:49:16;7.28;;;4.22;;
10007;SDS011;5043;41.766;26.204;2023-09-19T06:51:42;4.72;;;4.20;;
10007;SDS011;5043;41.766;26.204;2023-09-19T06:54:09;6.72;;;3.60;;
10007;SDS011;5043;41.766;26.204;2023-09-19T06:56:37;6.93;;;3.90;;
10007;SDS011;5043;41.766;26.204;2023-09-19T06:59:02;6.57;;;4.28;;
10007;SDS011;5043;41.766;26.204;2023-09-19T07:01:31;5.85;;;3.95;;
10007;SDS011;5043;41.766;26.204;2023-09-19T07:03:57;3.90;;;3.60;;
10007;SDS011;5043;41.766;26.204;2023-09-19T07:06:23;7.00;;;3.70;;
10007;SDS011;5043;41.766;26.204;2023-09-19T07:08:49;9.85;;;3.72;;
10007;SDS011;5043;41.766;26.204;2023-09-19T07:11:15;4.38;;;3.45;;
10007;SDS011;5043;41.766;26.204;2023-09-19T07:13:44;3.72;;;3.42;;
10007;SDS011;5043;41.766;26.204;2023-09-19T07:16:09;4.82;;;3.47;;
10007;SDS011;5043;41.766;26.204;2023-09-19T07:18:52;4.63;;;3.67;;
10007;SDS011;5043;41.766;26.204;2023-09-19T07:21:18;3.90;;;3.47;;
10007;SDS011;5043;41.766;26.204;2023-09-19T07:23:43;4.50;;;3.83;;
10007;SDS011;5043;41.766;26.204;2023-09-19T07:26:08;6.28;;;3.70;;
10007;SDS011;5043;41.766;26.204;2023-09-19T07:28:34;5.20;;;3.65;;
10007;SDS011;5043;41.766;26.204;2023-09-19T07:31:02;5.60;;;4.03;;
10007;SDS011;5043;41.766;26.204;2023-09-19T07:33:28;5.55;;;3.80;;
10007;SDS011;5043;41.766;26.204;2023-09-19T07:35:54;4.57;;;3.40;;
10007;SDS011;5043;41.766;26.204;2023-09-19T07:38:20;8.73;;;3.53;;
10007;SDS011;5043;41.766;26.204;2023-09-19T07:40:46;5.53;;;3.38;;
10007;SDS011;5043;41.766;26.204;2023-09-19T07:43:12;5.60;;;3.88;;
10007;SDS011;5043;41.766;26.204;2023-09-19T07:45:37;4.47;;;3.40;;
10007;SDS011;5043;41.766;26.204;2023-09-19T07:48:03;3.83;;;3.53;;
10007;SDS011;5043;41.766;26.204;2023-09-19T07:50:38;4.00;;;3.63;;
10007;SDS011;5043;41.766;26.204;2023-09-19T07:53:04;6.40;;;3.90;;
10007;SDS011;5043;41.766;26.204;2023-09-19T07:55:31;7.00;;;3.40;;
10007;SDS011;5043;41.766;26.204;2023-09-19T07:57:58;3.70;;;3.40;;
10007;SDS011;5043;41.766;26.204;2023-09-19T08:00:24;3.58;;;3.10;;
10007;SDS011;5043;41.766;26.204;2023-09-19T08:02:50;3.60;;;3.30;;
10007;SDS011;5043;41.766;26.204;2023-09-19T08:05:17;4.50;;;3.33;;
10007;SDS011;5043;41.766;26.204;2023-09-19T08:07:44;4.63;;;3.50;;
10007;SDS011;5043;41.766;26.204;2023-09-19T08:10:21;4.20;;;3.30;;
10007;SDS011;5043;41.766;26.204;2023-09-19T08:12:47;4.93;;;3.38;;
10007;SDS011;5043;41.766;26.204;2023-09-19T08:17:39;4.63;;;2.92;;
10007;SDS011;5043;41.766;26.204;2023-09-19T08:20:04;5.55;;;3.40;;
10007;SDS011;5043;41.766;26.204;2023-09-19T08:22:31;4.68;;;3.05;;
10007;SDS011;5043;41.766;26.204;2023-09-19T08:24:57;4.95;;;3.10;;
10007;SDS011;5043;41.766;26.204;2023-09-19T08:27:23;6.43;;;3.33;;
10007;SDS011;5043;41.766;26.204;2023-09-19T08:29:52;4.88;;;3.67;;
10007;SDS011;5043;41.766;26.204;2023-09-19T08:32:18;3.45;;;2.85;;
10007;SDS011;5043;41.766;26.204;2023-09-19T08:34:48;7.03;;;2.95;;
10007;SDS011;5043;41.766;26.204;2023-09-19T08:37:14;4.80;;;2.85;;
10007;SDS011;5043;41.766;26.204;2023-09-19T08:39:40;3.78;;;2.75;;
10007;SDS011;5043;41.766;26.204;2023-09-19T08:42:07;4.53;;;3.20;;
10007;SDS011;5043;41.766;26.204;2023-09-19T08:44:36;4.50;;;3.00;;
10007;SDS011;5043;41.766;26.204;2023-09-19T08:47:14;3.20;;;2.90;;
10007;SDS011;5043;41.766;26.204;2023-09-19T08:52:32;4.53;;;2.83;;
10007;SDS011;5043;41.766;26.204;2023-09-19T08:55:05;3.45;;;2.97;;
10007;SDS011;5043;41.766;26.204;2023-09-19T08:57:35;4.47;;;2.67;;
10007;SDS011;5043;41.766;26.204;2023-09-19T09:00:06;4.10;;;2.63;;
10007;SDS011;5043;41.766;26.204;2023-09-19T09:02:37;3.85;;;3.13;;
10007;SDS011;5043;41.766;26.204;2023-09-19T09:05:07;3.78;;;2.95;;
10007;SDS011;5043;41.766;26.204;2023-09-19T09:07:37;3.55;;;2.83;;
10007;SDS011;5043;41.766;26.204;2023-09-19T09:10:02;6.95;;;2.92;;
10007;SDS011;5043;41.766;26.204;2023-09-19T09:12:29;4.22;;;2.67;;
10007;SDS011;5043;41.766;26.204;2023-09-19T09:14:55;7.95;;;3.22;;
10007;SDS011;5043;41.766;26.204;2023-09-19T09:17:24;3.00;;;2.45;;
10007;SDS011;5043;41.766;26.204;2023-09-19T09:19:53;6.38;;;3.13;;
10007;SDS011;5043;41.766;26.204;2023-09-19T09:22:19;3.25;;;2.92;;
10007;SDS011;5043;41.766;26.204;2023-09-19T09:24:56;2.83;;;2.50;;
10007;SDS011;5043;41.766;26.204;2023-09-19T09:27:31;5.57;;;3.10;;
10007;SDS011;5043;41.766;26.204;2023-09-19T09:29:59;3.67;;;2.97;;
10007;SDS011;5043;41.766;26.204;2023-09-19T09:32:34;4.68;;;2.83;;
10007;SDS011;5043;41.766;26.204;2023-09-19T09:35:07;3.88;;;2.58;;
10007;SDS011;5043;41.766;26.204;2023-09-19T09:37:36;3.47;;;2.60;;
10007;SDS011;5043;41.766;26.204;2023-09-19T09:40:04;3.80;;;2.85;;
10007;SDS011;5043;41.766;26.204;2023-09-19T09:42:40;6.15;;;2.70;;
10007;SDS011;5043;41.766;26.204;2023-09-19T09:47:45;3.53;;;2.80;;
10007;SDS011;5043;41.766;26.204;2023-09-19T09:50:26;4.13;;;2.72;;
10007;SDS011;5043;41.766;26.204;2023-09-19T09:53:01;4.85;;;3.13;;
10007;SDS011;5043;41.766;26.204;2023-09-19T09:55:56;2.60;;;2.40;;
10007;SDS011;5043;41.766;26.204;2023-09-19T09:58:24;2.95;;;2.75;;
10007;SDS011;5043;41.766;26.204;2023-09-19T10:00:57;3.60;;;2.60;;
10007;SDS011;5043;41.766;26.204;2023-09-19T10:03:35;5.38;;;3.30;;
10007;SDS011;5043;41.766;26.204;2023-09-19T10:06:10;3.67;;;2.30;;
10007;SDS011;5043;41.766;26.204;2023-09-19T10:09:02;2.95;;;2.40;;
10007;SDS011;5043;41.766;26.204;2023-09-19T10:12:00;3.65;;;2.53;;
10007;SDS011;5043;41.766;26.204;2023-09-19T10:14:30;3.58;;;2.40;;
10007;SDS011;5043;41.766;26.204;2023-09-19T10:16:59;2.53;;;2.33;;
10007;SDS011;5043;41.766;26.204;2023-09-19T10:19:42;3.17;;;2.35;;
10007;SDS011;5043;41.766;26.204;2023-09-19T10:22:17;3.28;;;2.92;;
10007;SDS011;5043;41.766;26.204;2023-09-19T10:24:48;4.15;;;2.63;;
10007;SDS011;5043;41.766;26.204;2023-09-19T10:27:19;4.28;;;2.70;;
10007;SDS011;5043;41.766;26.204;2023-09-19T10:29:46;3.13;;;2.42;;
10007;SDS011;5043;41.766;26.204;2023-09-19T10:32:16;3.20;;;2.53;;
10007;SDS011;5043;41.766;26.204;2023-09-19T10:34:45;6.03;;;2.30;;
10007;SDS011;5043;41.766;26.204;2023-09-19T10:37:12;5.20;;;2.28;;
10007;SDS011;5043;41.766;26.204;2023-09-19T10:39:39;4.15;;;2.70;;
10007;SDS011;5043;41.766;26.204;2023-09-19T10:42:06;2.75;;;2.42;;
10007;SDS011;5043;41.766;26.204;2023-09-19T10:44:42;5.38;;;2.28;;
10007;SDS011;5043;41.766;26.204;2023-09-19T10:47:10;5.78;;;2.55;;
10007;SDS011;5043;41.766;26.204;2023-09-19T10:49:43;2.38;;;2.05;;
10007;SDS011;5043;41.766;26.204;2023-09-19T10:52:15;2.35;;;2.17;;
10007;SDS011;5043;41.766;26.204;2023-09-19T10:54:46;3.58;;;2.67;;
10007;SDS011;5043;41.766;26.204;2023-09-19T10:57:20;6.50;;;2.40;;
10007;SDS011;5043;41.766;26.204;2023-09-19T11:05:36;2.83;;;2.42;;
10007;SDS011;5043;41.766;26.204;2023-09-19T11:08:09;5.07;;;2.53;;
10007;SDS011;5043;41.766;26.204;2023-09-19T11:10:50;2.78;;;2.58;;
10007;SDS011;5043;41.766;26.204;2023-09-19T11:13:29;2.85;;;2.00;;
10007;SDS011;5043;41.766;26.204;2023-09-19T11:16:04;4.10;;;2.53;;
10007;SDS011;5043;41.766;26.204;2023-09-19T11:26:42;3.83;;;2.30;;
10007;SDS011;5043;41.766;26.204;2023-09-19T11:29:24;4.32;;;2.45;;
10007;SDS011;5043;41.766;26.204;2023-09-19T11:31:51;2.22;;;2.03;;
10007;SDS011;5043;41.766;26.204;2023-09-19T11:37:01;4.20;;;3.10;;
10007;SDS011;5043;41.766;26.204;2023-09-19T11:39:29;2.28;;;2.08;;
10007;SDS011;5043;41.766;26.204;2023-09-19T11:41:55;2.08;;;1.90;;
10007;SDS011;5043;41.766;26.204;2023-09-19T11:44:32;2.40;;;2.15;;
10007;SDS011;5043;41.766;26.204;2023-09-19T11:46:59;3.83;;;2.15;;
10007;SDS011;5043;41.766;26.204;2023-09-19T11:49:29;3.28;;;2.03;;
10007;SDS011;5043;41.766;26.204;2023-09-19T11:51:57;2.47;;;2.25;;
10007;SDS011;5043;41.766;26.204;2023-09-19T11:54:30;5.38;;;2.70;;
10007;SDS011;5043;41.766;26.204;2023-09-19T11:56:57;6.28;;;2.50;;
10007;SDS011;5043;41.766;26.204;2023-09-19T11:59:29;2.20;;;2.10;;
10007;SDS011;5043;41.766;26.204;2023-09-19T12:01:56;4.25;;;2.10;;
10007;SDS011;5043;41.766;26.204;2023-09-19T12:07:02;2.58;;;2.33;;
10007;SDS011;5043;41.766;26.204;2023-09-19T12:09:48;4.93;;;2.10;;
10007;SDS011;5043;41.766;26.204;2023-09-19T12:12:25;2.40;;;2.20;;
10007;SDS011;5043;41.766;26.204;2023-09-19T12:14:52;3.47;;;2.58;;
10007;SDS011;5043;41.766;26.204;2023-09-19T12:17:19;4.45;;;2.72;;
10007;SDS011;5043;41.766;26.204;2023-09-19T12:19:55;4.90;;;2.85;;
10007;SDS011;5043;41.766;26.204;2023-09-19T12:22:23;4.53;;;2.63;;
10007;SDS011;5043;41.766;26.204;2023-09-19T12:24:50;3.25;;;2.63;;
10007;SDS011;5043;41.766;26.204;2023-09-19T12:27:21;5.05;;;2.70;;
10007;SDS011;5043;41.766;26.204;2023-09-19T12:29:47;5.10;;;2.20;;
10007;SDS011;5043;41.766;26.204;2023-09-19T12:32:14;2.88;;;2.22;;
10007;SDS011;5043;41.766;26.204;2023-09-19T12:34:42;3.72;;;2.58;;
10007;SDS011;5043;41.766;26.204;2023-09-19T12:37:08;4.50;;;2.92;;
10007;SDS011;5043;41.766;26.204;2023-09-19T12:53:03;9.63;;;2.80;;
10007;SDS011;5043;41.766;26.204;2023-09-19T12:55:29;3.67;;;2.83;;
10007;SDS011;5043;41.766;26.204;2023-09-19T12:58:08;3.75;;;2.70;;
10007;SDS011;5043;41.766;26.204;2023-09-19T13:00:41;2.55;;;2.35;;
10007;SDS011;5043;41.766;26.204;2023-09-19T13:03:25;3.88;;;2.90;;
10007;SDS011;5043;41.766;26.204;2023-09-19T13:05:54;2.83;;;2.53;;
10007;SDS011;5043;41.766;26.204;2023-09-19T13:08:23;3.30;;;2.88;;
10007;SDS011;5043;41.766;26.204;2023-09-19T13:16:26;3.10;;;2.80;;
10007;SDS011;5043;41.766;26.204;2023-09-19T13:18:55;3.00;;;2.80;;
10007;SDS011;5043;41.766;26.204;2023-09-19T13:21:27;3.50;;;2.67;;
10007;SDS011;5043;41.766;26.204;2023-09-19T13:23:55;5.10;;;2.50;;
10007;SDS011;5043;41.766;26.204;2023-09-19T13:26:27;2.60;;;2.40;;
10007;SDS011;5043;41.766;26.204;2023-09-19T13:28:54;3.55;;;2.63;;
10007;SDS011;5043;41.766;26.204;2023-09-19T13:31:20;5.78;;;2.97;;
10007;SDS011;5043;41.766;26.204;2023-09-19T13:33:47;3.47;;;2.70;;
10007;SDS011;5043;41.766;26.204;2023-09-19T13:36:13;7.07;;;2.92;;
10007;SDS011;5043;41.766;26.204;2023-09-19T13:38:40;2.50;;;2.30;;
10007;SDS011;5043;41.766;26.204;2023-09-19T13:41:08;4.28;;;2.60;;
10007;SDS011;5043;41.766;26.204;2023-09-19T13:43:37;4.47;;;2.72;;
10007;SDS011;5043;41.766;26.204;2023-09-19T13:46:03;4.72;;;2.80;;
10007;SDS011;5043;41.766;26.204;2023-09-19T13:48:29;5.22;;;2.63;;
10007;SDS011;5043;41.766;26.204;2023-09-19T13:50:55;4.40;;;2.40;;
10007;SDS011;5043;41.766;26.204;2023-09-19T13:53:21;2.72;;;2.50;;
10007;SDS011;5043;41.766;26.204;2023-09-19T13:55:47;2.60;;;2.35;;
10007;SDS011;5043;41.766;26.204;2023-09-19T13:58:16;6.22;;;2.50;;
10007;SDS011;5043;41.766;26.204;2023-09-19T14:00:41;4.85;;;2.78;;
10007;SDS011;5043;41.766;26.204;2023-09-19T14:03:08;3.03;;;2.53;;
10007;SDS011;5043;41.766;26.204;2023-09-19T14:05:33;2.38;;;2.20;;
10007;SDS011;5043;41.766;26.204;2023-09-19T14:07:58;4.47;;;2.67;;
10007;SDS011;5043;41.766;26.204;2023-09-19T14:10:24;5.40;;;2.50;;
10007;SDS011;5043;41.766;26.204;2023-09-19T14:12:55;3.08;;;2.75;;
10007;SDS011;5043;41.766;26.204;2023-09-19T14:15:21;3.45;;;2.75;;
10007;SDS011;5043;41.766;26.204;2023-09-19T14:17:54;2.55;;;2.30;;
10007;SDS011;5043;41.766;26.204;2023-09-19T14:20:21;6.28;;;3.03;;
10007;SDS011;5043;41.766;26.204;2023-09-19T14:22:47;7.50;;;3.50;;
10007;SDS011;5043;41.766;26.204;2023-09-19T14:25:13;3.05;;;2.75;;
10007;SDS011;5043;41.766;26.204;2023-09-19T14:27:38;3.30;;;3.00;;
10007;SDS011;5043;41.766;26.204;2023-09-19T14:30:05;4.50;;;2.92;;
10007;SDS011;5043;41.766;26.204;2023-09-19T14:32:31;2.60;;;2.40;;
10007;SDS011;5043;41.766;26.204;2023-09-19T14:34:56;4.80;;;2.45;;
10007;SDS011;5043;41.766;26.204;2023-09-19T14:37:22;4.85;;;2.88;;
10007;SDS011;5043;41.766;26.204;2023-09-19T14:39:47;3.00;;;2.60;;
10007;SDS011;5043;41.766;26.204;2023-09-19T14:42:13;3.20;;;2.90;;
10007;SDS011;5043;41.766;26.204;2023-09-19T14:44:43;4.20;;;2.88;;
10007;SDS011;5043;41.766;26.204;2023-09-19T14:47:09;9.90;;;3.10;;
10007;SDS011;5043;41.766;26.204;2023-09-19T14:49:34;4.50;;;3.17;;
10007;SDS011;5043;41.766;26.204;2023-09-19T14:52:03;5.72;;;3.03;;
10007;SDS011;5043;41.766;26.204;2023-09-19T14:54:29;4.72;;;2.95;;
10007;SDS011;5043;41.766;26.204;2023-09-19T14:56:55;6.22;;;3.08;;
10007;SDS011;5043;41.766;26.204;2023-09-19T14:59:30;4.32;;;3.15;;
10007;SDS011;5043;41.766;26.204;2023-09-19T15:01:57;5.55;;;2.92;;
10007;SDS011;5043;41.766;26.204;2023-09-19T15:04:23;4.45;;;2.97;;
10007;SDS011;5043;41.766;26.204;2023-09-19T15:06:49;3.92;;;3.10;;
10007;SDS011;5043;41.766;26.204;2023-09-19T15:09:16;8.18;;;3.17;;
10007;SDS011;5043;41.766;26.204;2023-09-19T15:11:43;4.35;;;2.55;;
10007;SDS011;5043;41.766;26.204;2023-09-19T15:14:09;5.20;;;2.83;;
10007;SDS011;5043;41.766;26.204;2023-09-19T15:16:34;5.97;;;3.00;;
10007;SDS011;5043;41.766;26.204;2023-09-19T15:19:00;4.43;;;3.25;;
10007;SDS011;5043;41.766;26.204;2023-09-19T15:21:26;8.13;;;3.42;;
10007;SDS011;5043;41.766;26.204;2023-09-19T15:23:51;5.03;;;3.00;;
10007;SDS011;5043;41.766;26.204;2023-09-19T15:26:18;4.57;;;2.88;;
10007;SDS011;5043;41.766;26.204;2023-09-19T15:28:46;5.53;;;3.72;;
10007;SDS011;5043;41.766;26.204;2023-09-19T15:31:13;8.65;;;2.92;;
10007;SDS011;5043;41.766;26.204;2023-09-19T15:33:38;6.10;;;3.30;;
10007;SDS011;5043;41.766;26.204;2023-09-19T15:36:04;4.20;;;2.92;;
10007;SDS011;5043;41.766;26.204;2023-09-19T15:38:32;4.82;;;3.65;;
10007;SDS011;5043;41.766;26.204;2023-09-19T15:41:18;3.40;;;3.10;;
10007;SDS011;5043;41.766;26.204;2023-09-19T15:43:45;6.75;;;3.70;;
10007;SDS011;5043;41.766;26.204;2023-09-19T15:46:11;6.50;;;3.35;;
10007;SDS011;5043;41.766;26.204;2023-09-19T15:48:36;6.40;;;3.70;;
10007;SDS011;5043;41.766;26.204;2023-09-19T15:51:03;5.68;;;3.50;;
10007;SDS011;5043;41.766;26.204;2023-09-19T15:53:31;8.77;;;3.58;;
10007;SDS011;5043;41.766;26.204;2023-09-19T15:56:09;6.93;;;4.47;;
10007;SDS011;5043;41.766;26.204;2023-09-19T15:58:35;11.82;;;7.13;;